createdAt,value
2023-05-20T00:00:54.793Z,99967.83
2023-05-20T00:03:23.075Z,99969.29
2023-05-20T00:05:51.515Z,99969.33
2023-05-20T00:08:19.959Z,99970.55
2023-05-20T00:10:48.037Z,99970.45
2023-05-20T00:13:15.944Z,99971.59
2023-05-20T00:15:43.971Z,99974.20
2023-05-20T00:18:12.067Z,99974.16
2023-05-20T00:20:40.115Z,99977.14
2023-05-20T00:23:08.182Z,99977.44
2023-05-20T00:25:36.408Z,99977.54
2023-05-20T00:28:06.197Z,99976.33
2023-05-20T00:30:34.157Z,99974.01
2023-05-20T00:33:02.369Z,99976.34
2023-05-20T00:35:30.395Z,99977.38
2023-05-20T00:37:58.286Z,99974.06
2023-05-20T00:40:26.396Z,99974.05
2023-05-20T00:42:54.932Z,99974.11
2023-05-20T00:45:23.122Z,99974.34
2023-05-20T00:47:51.251Z,99973.48
2023-05-20T00:50:19.323Z,99970.52
2023-05-20T00:52:48.384Z,99967.24
2023-05-20T00:55:16.774Z,99968.97
2023-05-20T00:57:44.793Z,99967.62
2023-05-20T01:00:14.205Z,99962.77
2023-05-20T01:02:42.355Z,99962.06
2023-05-20T01:05:10.829Z,99963.70
2023-05-20T01:07:39.012Z,99967.70
2023-05-20T01:10:07.647Z,99965.80
2023-05-20T01:13:05.291Z,99967.23
2023-05-20T01:15:33.960Z,99969.89
2023-05-20T01:18:06.093Z,99967.14
2023-05-20T01:20:35.994Z,99965.20
2023-05-20T01:23:04.407Z,99967.27
2023-05-20T01:25:32.527Z,99970.42
2023-05-20T01:28:02.222Z,99972.89
2023-05-20T01:30:36.069Z,99970.25
2023-05-20T01:33:09.820Z,99963.98
2023-05-20T01:35:41.552Z,99959.20
2023-05-20T01:38:12.733Z,99959.54
2023-05-20T01:40:42.927Z,99956.15
2023-05-20T01:43:11.175Z,99957.33
2023-05-20T01:45:42.049Z,99961.20
2023-05-20T01:48:13.541Z,99960.02
2023-05-20T01:50:42.520Z,99962.03
2023-05-20T01:53:11.742Z,99960.65
2023-05-20T01:55:39.771Z,99959.24
2023-05-20T01:58:07.769Z,99958.39
2023-05-20T02:00:37.138Z,99960.28
2023-05-20T02:03:05.420Z,99963.83
2023-05-20T02:05:33.744Z,99967.96
2023-05-20T02:08:02.069Z,99968.58
2023-05-20T02:10:30.087Z,99968.52
2023-05-20T02:12:58.025Z,99972.80
2023-05-20T02:15:26.226Z,99975.56
2023-05-20T02:17:54.926Z,99973.27
2023-05-20T02:20:22.941Z,99969.08
2023-05-20T02:22:50.953Z,99970.52
2023-05-20T02:25:18.994Z,99966.16
2023-05-20T02:27:46.977Z,99966.47
2023-05-20T02:30:15.201Z,99966.47
2023-05-20T02:32:43.272Z,99966.77
2023-05-20T02:35:11.441Z,99969.31
2023-05-20T02:37:39.598Z,99968.88
2023-05-20T02:40:09.385Z,99969.29
2023-05-20T02:42:41.263Z,99970.44
2023-05-20T02:45:09.787Z,99968.17
2023-05-20T02:47:37.840Z,99967.34
2023-05-20T02:50:07.227Z,99964.94
2023-05-20T02:52:35.243Z,99964.73
2023-05-20T02:55:04.924Z,99966.70
2023-05-20T02:57:35.138Z,99966.90
2023-05-20T03:00:05.054Z,99968.68
2023-05-20T03:02:33.849Z,99963.56
2023-05-20T03:05:02.614Z,99963.02
2023-05-20T03:07:31.716Z,99960.19
2023-05-20T03:09:59.992Z,99961.05
2023-05-20T03:12:28.031Z,99958.36
2023-05-20T03:14:56.110Z,99958.58
2023-05-20T03:17:24.307Z,99961.13
2023-05-20T03:19:52.239Z,99957.91
2023-05-20T03:22:20.227Z,99960.48
2023-05-20T03:24:48.511Z,99959.66
2023-05-20T03:27:16.475Z,99962.36
2023-05-20T03:29:44.633Z,99961.98
2023-05-20T03:32:12.573Z,99963.52
2023-05-20T03:34:40.846Z,99962.92
2023-05-20T03:37:08.834Z,99964.68
2023-05-20T03:39:36.951Z,99967.61
2023-05-20T03:42:05.536Z,99969.73
2023-05-20T03:44:33.956Z,99972.55
2023-05-20T03:47:02.093Z,99973.18
2023-05-20T03:49:31.123Z,99974.92
2023-05-20T03:51:59.167Z,99979.86
2023-05-20T03:54:28.163Z,99983.70
2023-05-20T03:56:56.689Z,99981.30
2023-05-20T03:59:24.919Z,99983.36
2023-05-20T04:01:53.375Z,99981.64
2023-05-20T04:04:21.472Z,99982.75
2023-05-20T04:06:49.914Z,99985.23
2023-05-20T04:09:17.905Z,99983.36
2023-05-20T04:11:46.301Z,99981.80
2023-05-20T04:14:15.350Z,99979.14
2023-05-20T04:16:45.252Z,99977.51
2023-05-20T04:19:13.424Z,99983.01
2023-05-20T04:21:43.322Z,99987.11
2023-05-20T04:24:11.855Z,99986.27
2023-05-20T04:26:40.296Z,99984.11
2023-05-20T04:29:08.268Z,99986.86
2023-05-20T04:31:38.592Z,99983.48
2023-05-20T04:34:06.597Z,99988.38
2023-05-20T04:36:34.740Z,99993.98
2023-05-20T04:39:05.135Z,99993.38
2023-05-20T04:41:33.265Z,99994.52
2023-05-20T04:44:01.969Z,99993.83
2023-05-20T04:46:31.718Z,99994.52
2023-05-20T04:48:59.967Z,99995.95
2023-05-20T04:51:29.493Z,99991.87
2023-05-20T04:54:35.866Z,99992.45
2023-05-20T04:57:35.321Z,99987.92
2023-05-20T05:00:07.368Z,99983.41
2023-05-20T05:02:36.352Z,99983.70
2023-05-20T05:05:05.044Z,99987.45
2023-05-20T05:07:33.325Z,99988.16
2023-05-20T05:10:01.462Z,99986.98
2023-05-20T05:12:31.228Z,99982.84
2023-05-20T05:14:59.999Z,99987.07
2023-05-20T05:17:29.250Z,99992.98
2023-05-20T05:19:58.269Z,99999.36
2023-05-20T05:22:27.112Z,99999.41
2023-05-20T05:24:55.902Z,99998.42
2023-05-20T05:27:24.268Z,99997.64
2023-05-20T05:29:52.510Z,100001.27
2023-05-20T05:32:20.807Z,100003.46
2023-05-20T05:34:49.123Z,100003.19
2023-05-20T05:37:17.363Z,100004.23
2023-05-20T05:39:45.610Z,100001.48
2023-05-20T05:42:13.863Z,100000.45
2023-05-20T05:44:42.784Z,99999.70
2023-05-20T05:47:11.713Z,100004.46
2023-05-20T05:49:39.833Z,100010.84
2023-05-20T05:52:08.224Z,100009.57
2023-05-20T05:54:36.626Z,100004.07
2023-05-20T05:57:06.483Z,100006.49
2023-05-20T05:59:35.468Z,100009.86
2023-05-20T06:02:06.424Z,100004.02
2023-05-20T06:04:34.508Z,100001.20
2023-05-20T06:07:02.814Z,99998.70
2023-05-20T06:09:31.112Z,99997.89
2023-05-20T06:11:59.682Z,99998.31
2023-05-20T06:14:27.775Z,99995.94
2023-05-20T06:16:56.054Z,99990.97
2023-05-20T06:19:24.602Z,99989.66
2023-05-20T06:21:52.748Z,99988.34
2023-05-20T06:24:22.410Z,99989.36
2023-05-20T06:26:52.439Z,99988.95
2023-05-20T06:29:21.063Z,99994.13
2023-05-20T06:31:49.044Z,99998.30
2023-05-20T06:34:16.996Z,100002.07
2023-05-20T06:36:44.946Z,100001.02
2023-05-20T06:39:13.127Z,100001.30
2023-05-20T06:41:44.433Z,100008.14
2023-05-20T06:44:19.943Z,100012.17
2023-05-20T06:47:00.022Z,100010.92
2023-05-20T06:49:28.531Z,100003.17
2023-05-20T06:51:56.707Z,100005.32
2023-05-20T06:54:25.598Z,100002.38
2023-05-20T06:56:53.737Z,100008.45
2023-05-20T06:59:22.689Z,100010.20
2023-05-20T07:01:50.772Z,100007.88
2023-05-20T07:04:19.883Z,100001.96
2023-05-20T07:06:48.155Z,99998.88
2023-05-20T07:09:16.482Z,99993.33
2023-05-20T07:11:44.569Z,99991.84
2023-05-20T07:14:12.961Z,99990.67
2023-05-20T07:16:41.672Z,99987.98
2023-05-20T07:19:10.115Z,99989.84
2023-05-20T07:21:38.186Z,99988.55
2023-05-20T07:24:24.301Z,99989.79
2023-05-20T07:26:52.454Z,99991.80
2023-05-20T07:29:20.549Z,99992.17
2023-05-20T07:31:48.646Z,99989.61
2023-05-20T07:34:17.513Z,99993.98
2023-05-20T07:36:45.550Z,99997.99
2023-05-20T07:39:15.331Z,99996.40
2023-05-20T07:41:43.665Z,99993.95
2023-05-20T07:44:13.078Z,99987.29
2023-05-20T07:46:44.066Z,99987.48
2023-05-20T07:49:12.537Z,99987.08
2023-05-20T07:51:41.593Z,99986.67
2023-05-20T07:54:09.717Z,99990.45
2023-05-20T07:56:38.496Z,99990.46
2023-05-20T07:59:07.606Z,99990.61
2023-05-20T08:01:42.246Z,99992.68
2023-05-20T08:04:12.084Z,99993.46
2023-05-20T08:06:41.398Z,99993.09
2023-05-20T08:09:11.811Z,99987.14
2023-05-20T08:11:42.171Z,99981.16
2023-05-20T08:14:10.264Z,99976.70
2023-05-20T08:16:42.470Z,99978.40
2023-05-20T08:19:10.751Z,99977.48
2023-05-20T08:21:39.248Z,99976.54
2023-05-20T08:24:08.089Z,99973.00
2023-05-20T08:26:36.411Z,99967.92
2023-05-20T08:29:04.500Z,99972.21
2023-05-20T08:31:33.583Z,99973.27
2023-05-20T08:34:01.811Z,99969.83
2023-05-20T08:36:29.888Z,99968.38
2023-05-20T08:38:58.035Z,99959.95
2023-05-20T08:41:26.424Z,99956.84
2023-05-20T08:43:54.702Z,99954.59
2023-05-20T08:46:23.652Z,99951.77
2023-05-20T08:48:52.223Z,99946.48
2023-05-20T08:51:23.834Z,99945.63
2023-05-20T08:53:52.351Z,99943.52
2023-05-20T08:56:21.991Z,99941.74
2023-05-20T08:58:50.549Z,99941.47
2023-05-20T09:01:18.703Z,99941.34
2023-05-20T09:03:46.670Z,99942.69
2023-05-20T09:06:17.986Z,99941.67
2023-05-20T09:08:47.024Z,99941.71
2023-05-20T09:11:15.113Z,99939.14
2023-05-20T09:13:43.431Z,99935.80
2023-05-20T09:16:11.791Z,99939.14
2023-05-20T09:18:40.894Z,99937.63
2023-05-20T09:21:10.285Z,99940.17
2023-05-20T09:23:38.665Z,99945.14
2023-05-20T09:26:06.895Z,99946.27
2023-05-20T09:28:36.144Z,99943.99
2023-05-20T09:31:05.807Z,99944.39
2023-05-20T09:33:35.685Z,99941.11
2023-05-20T09:36:05.129Z,99941.28
2023-05-20T09:38:38.254Z,99939.06
2023-05-20T09:41:13.925Z,99940.06
2023-05-20T09:43:42.484Z,99940.74
2023-05-20T09:46:10.997Z,99942.48
2023-05-20T09:48:40.156Z,99941.23
2023-05-20T09:51:09.826Z,99943.25
2023-05-20T09:53:38.021Z,99936.88
2023-05-20T09:56:06.285Z,99931.63
2023-05-20T09:58:36.135Z,99933.73
2023-05-20T10:01:04.218Z,99933.79
2023-05-20T10:03:33.450Z,99935.41
2023-05-20T10:06:21.544Z,99931.25
2023-05-20T10:08:58.077Z,99933.79
2023-05-20T10:11:44.363Z,99934.88
2023-05-20T10:14:37.164Z,99934.19
2023-05-20T10:17:13.490Z,99931.01
2023-05-20T10:19:41.946Z,99927.55
2023-05-20T10:22:11.791Z,99926.63
2023-05-20T10:24:41.895Z,99928.00
2023-05-20T10:27:18.176Z,99929.38
2023-05-20T10:29:52.291Z,99931.77
2023-05-20T10:32:27.991Z,99927.27
2023-05-20T10:35:01.626Z,99920.51
2023-05-20T10:37:30.560Z,99924.23
2023-05-20T10:40:08.898Z,99923.02
2023-05-20T10:42:37.137Z,99926.35
2023-05-20T10:45:06.526Z,99924.98
2023-05-20T10:47:35.354Z,99916.10
2023-05-20T10:50:06.025Z,99914.09
2023-05-20T10:52:37.050Z,99914.34
2023-05-20T10:55:05.538Z,99909.79
2023-05-20T10:57:34.658Z,99908.48
2023-05-20T11:00:05.593Z,99906.73
2023-05-20T11:02:34.515Z,99906.01
2023-05-20T11:05:04.390Z,99902.50
2023-05-20T11:07:32.582Z,99896.75
2023-05-20T11:10:00.667Z,99897.16
2023-05-20T11:12:28.705Z,99897.06
2023-05-20T11:14:56.902Z,99893.60
2023-05-20T11:17:25.000Z,99891.10
2023-05-20T11:19:53.044Z,99890.98
2023-05-20T11:22:21.218Z,99893.39
2023-05-20T11:24:49.195Z,99889.61
2023-05-20T11:27:17.306Z,99887.56
2023-05-20T11:29:45.547Z,99880.41
2023-05-20T11:32:13.551Z,99876.17
2023-05-20T11:34:42.734Z,99871.77
2023-05-20T11:37:11.796Z,99870.23
2023-05-20T11:39:40.381Z,99866.71
2023-05-20T11:42:08.451Z,99871.04
2023-05-20T11:44:36.583Z,99875.32
2023-05-20T11:47:04.845Z,99873.83
2023-05-20T11:49:40.534Z,99871.39
2023-05-20T11:52:10.308Z,99871.92
2023-05-20T11:54:38.622Z,99874.25
2023-05-20T11:57:07.328Z,99879.24
2023-05-20T11:59:35.630Z,99881.61
2023-05-20T12:02:03.687Z,99877.09
2023-05-20T12:04:31.743Z,99870.54
2023-05-20T12:06:59.891Z,99871.46
2023-05-20T12:09:28.027Z,99866.23
2023-05-20T12:11:56.916Z,99866.55
2023-05-20T12:14:24.964Z,99867.97
2023-05-20T12:16:53.804Z,99869.73
2023-05-20T12:19:21.814Z,99872.21
2023-05-20T12:21:49.890Z,99873.80
2023-05-20T12:24:17.890Z,99873.52
2023-05-20T12:26:45.830Z,99867.91
2023-05-20T12:29:13.890Z,99865.85
2023-05-20T12:31:41.899Z,99866.18
2023-05-20T12:34:09.841Z,99863.73
2023-05-20T12:36:37.970Z,99865.44
2023-05-20T12:39:06.229Z,99865.16
2023-05-20T12:41:34.333Z,99865.13
2023-05-20T12:44:02.559Z,99864.42
2023-05-20T12:46:30.754Z,99857.65
2023-05-20T12:48:58.760Z,99858.04
2023-05-20T12:51:26.783Z,99859.95
2023-05-20T12:53:54.784Z,99861.05
2023-05-20T12:56:23.831Z,99858.13
2023-05-20T12:58:51.875Z,99853.61
2023-05-20T13:01:19.869Z,99849.11
2023-05-20T13:03:48.127Z,99842.34
2023-05-20T13:06:16.798Z,99843.44
2023-05-20T13:08:45.484Z,99843.93
2023-05-20T13:11:13.784Z,99840.66
2023-05-20T13:13:41.757Z,99840.17
2023-05-20T13:16:10.699Z,99845.29
2023-05-20T13:18:38.753Z,99847.67
2023-05-20T13:21:06.847Z,99849.80
2023-05-20T13:23:34.910Z,99851.96
2023-05-20T13:26:03.125Z,99853.73
2023-05-20T13:28:31.442Z,99849.84
2023-05-20T13:30:59.486Z,99846.05
2023-05-20T13:33:27.508Z,99846.15
2023-05-20T13:35:55.635Z,99844.52
2023-05-20T13:38:23.638Z,99838.98
2023-05-20T13:40:51.738Z,99837.02
2023-05-20T13:43:19.687Z,99832.08
2023-05-20T13:45:47.799Z,99827.82
2023-05-20T13:48:16.260Z,99824.09
2023-05-20T13:50:44.420Z,99818.50
2023-05-20T13:53:13.886Z,99815.49
2023-05-20T13:55:42.123Z,99812.30
2023-05-20T13:58:10.149Z,99807.34
2023-05-20T14:00:39.137Z,99802.52
2023-05-20T14:03:09.192Z,99799.89
2023-05-20T14:05:37.533Z,99798.81
2023-05-20T14:08:05.679Z,99792.73
2023-05-20T14:10:33.929Z,99786.30
2023-05-20T14:13:02.296Z,99785.84
2023-05-20T14:15:33.078Z,99789.08
2023-05-20T14:18:01.138Z,99786.96
2023-05-20T14:20:29.085Z,99784.84
2023-05-20T14:22:57.324Z,99784.34
2023-05-20T14:25:25.301Z,99782.11
2023-05-20T14:27:53.370Z,99777.13
2023-05-20T14:30:21.464Z,99773.22
2023-05-20T14:32:49.564Z,99773.52
2023-05-20T14:35:18.354Z,99770.15
2023-05-20T14:37:46.574Z,99771.60
2023-05-20T14:40:14.847Z,99773.12
2023-05-20T14:42:42.829Z,99775.48
2023-05-20T14:45:11.281Z,99775.42
2023-05-20T14:47:42.002Z,99771.69
2023-05-20T14:50:10.226Z,99768.65
2023-05-20T14:52:38.256Z,99764.94
2023-05-20T14:55:06.348Z,99766.02
2023-05-20T14:57:34.381Z,99765.48
2023-05-20T15:00:02.413Z,99761.31
2023-05-20T15:02:30.610Z,99756.11
2023-05-20T15:04:59.052Z,99748.83
2023-05-20T15:07:27.737Z,99747.30
2023-05-20T15:09:55.894Z,99744.92
2023-05-20T15:12:24.005Z,99737.02
2023-05-20T15:14:51.946Z,99738.03
2023-05-20T15:17:19.883Z,99738.22
2023-05-20T15:19:47.829Z,99734.10
2023-05-20T15:22:15.866Z,99732.48
2023-05-20T15:24:43.790Z,99731.20
2023-05-20T15:27:11.787Z,99734.63
2023-05-20T15:29:40.906Z,99733.83
2023-05-20T15:32:09.088Z,99731.76
2023-05-20T15:34:37.142Z,99730.56
2023-05-20T15:37:05.103Z,99724.61
2023-05-20T15:39:37.294Z,99718.28
2023-05-20T15:42:06.416Z,99716.15
2023-05-20T15:44:36.163Z,99719.89
2023-05-20T15:47:06.145Z,99715.48
2023-05-20T15:49:34.258Z,99711.36
2023-05-20T15:52:03.924Z,99713.67
2023-05-20T15:54:32.957Z,99707.33
2023-05-20T15:57:01.260Z,99708.23
2023-05-20T15:59:29.314Z,99704.64
2023-05-20T16:01:57.481Z,99701.79
2023-05-20T16:04:25.896Z,99701.83
2023-05-20T16:06:54.094Z,99696.48
2023-05-20T16:09:22.443Z,99696.63
2023-05-20T16:11:50.492Z,99698.05
2023-05-20T16:14:18.657Z,99694.08
2023-05-20T16:16:46.720Z,99696.63
2023-05-20T16:19:14.790Z,99694.84
2023-05-20T16:21:42.794Z,99692.73
2023-05-20T16:24:10.877Z,99693.83
2023-05-20T16:26:38.869Z,99691.69
2023-05-20T16:29:07.172Z,99691.55
2023-05-20T16:31:35.134Z,99687.41
2023-05-20T16:34:03.986Z,99688.77
2023-05-20T16:36:32.039Z,99689.77
2023-05-20T16:38:59.977Z,99685.73
2023-05-20T16:41:28.004Z,99683.10
2023-05-20T16:43:58.752Z,99681.30
2023-05-20T16:46:26.783Z,99681.05
2023-05-20T16:48:54.958Z,99679.63
2023-05-20T16:51:23.608Z,99676.06
2023-05-20T16:53:51.926Z,99673.38
2023-05-20T16:56:22.115Z,99676.16
2023-05-20T16:58:52.682Z,99675.42
2023-05-20T17:01:21.911Z,99674.44
2023-05-20T17:03:50.013Z,99674.64
2023-05-20T17:06:18.066Z,99674.63
2023-05-20T17:08:46.188Z,99673.52
2023-05-20T17:11:14.223Z,99677.71
2023-05-20T17:13:42.398Z,99673.74
2023-05-20T17:16:12.120Z,99673.73
2023-05-20T17:18:40.327Z,99673.80
2023-05-20T17:21:08.382Z,99672.10
2023-05-20T17:23:36.375Z,99670.42
2023-05-20T17:26:04.577Z,99666.84
2023-05-20T17:28:32.537Z,99665.44
2023-05-20T17:31:00.492Z,99664.79
2023-05-20T17:33:28.676Z,99665.08
2023-05-20T17:35:57.084Z,99670.54
2023-05-20T17:38:26.502Z,99670.26
2023-05-20T17:40:55.271Z,99671.88
2023-05-20T17:43:25.164Z,99671.84
2023-05-20T17:45:53.330Z,99667.94
2023-05-20T17:48:21.426Z,99668.21
2023-05-20T17:50:49.520Z,99662.85
2023-05-20T17:53:18.717Z,99659.70
2023-05-20T17:55:49.506Z,99656.75
2023-05-20T17:58:17.608Z,99660.95
2023-05-20T18:00:45.577Z,99658.07
2023-05-20T18:03:13.980Z,99659.66
2023-05-20T18:05:42.564Z,99658.02
2023-05-20T18:08:10.573Z,99658.02
2023-05-20T18:10:38.930Z,99659.52
2023-05-20T18:13:06.895Z,99664.05
2023-05-20T18:15:34.846Z,99659.67
2023-05-20T18:18:02.977Z,99663.41
2023-05-20T18:20:31.146Z,99660.02
2023-05-20T18:22:59.284Z,99655.27
2023-05-20T18:25:27.400Z,99656.91
2023-05-20T18:27:55.531Z,99655.70
2023-05-20T18:30:23.686Z,99654.79
2023-05-20T18:32:51.874Z,99655.13
2023-05-20T18:35:19.928Z,99653.88
2023-05-20T18:37:47.893Z,99654.05
2023-05-20T18:40:15.927Z,99650.36
2023-05-20T18:42:43.905Z,99645.63
2023-05-20T18:45:12.277Z,99647.83
2023-05-20T18:47:40.403Z,99645.83
2023-05-20T18:50:09.635Z,99644.70
2023-05-20T18:52:37.662Z,99642.00
2023-05-20T18:55:08.974Z,99637.66
2023-05-20T18:57:37.853Z,99634.28
2023-05-20T19:00:10.784Z,99635.77
2023-05-20T19:02:40.173Z,99638.83
2023-05-20T19:05:09.346Z,99641.38
2023-05-20T19:07:38.544Z,99641.36
2023-05-20T19:10:07.521Z,99638.71
2023-05-20T19:12:35.470Z,99638.75
2023-05-20T19:15:05.188Z,99641.58
2023-05-20T19:17:33.851Z,99638.55
2023-05-20T19:20:02.565Z,99646.08
2023-05-20T19:22:30.936Z,99648.50
2023-05-20T19:24:59.351Z,99651.57
2023-05-20T19:27:27.420Z,99648.95
2023-05-20T19:29:55.571Z,99651.33
2023-05-20T19:32:23.683Z,99652.23
2023-05-20T19:34:51.682Z,99651.49
2023-05-20T19:37:22.341Z,99653.36
2023-05-20T19:39:51.124Z,99657.48
2023-05-20T19:42:19.085Z,99658.79
2023-05-20T19:44:47.289Z,99659.27
2023-05-20T19:47:15.757Z,99658.65
2023-05-20T19:49:43.749Z,99657.02
2023-05-20T19:52:11.690Z,99654.50
2023-05-20T19:54:41.785Z,99656.08
2023-05-20T19:57:10.064Z,99657.29
2023-05-20T19:59:38.357Z,99660.37
2023-05-20T20:02:07.040Z,99661.31
2023-05-20T20:04:36.468Z,99660.91
2023-05-20T20:07:04.751Z,99660.57
2023-05-20T20:09:33.454Z,99661.42
2023-05-20T20:12:02.829Z,99661.94
2023-05-20T20:14:31.376Z,99660.89
2023-05-20T20:16:59.809Z,99663.84
2023-05-20T20:19:28.633Z,99661.52
2023-05-20T20:21:58.159Z,99660.45
2023-05-20T20:24:28.028Z,99659.87
2023-05-20T20:26:57.054Z,99655.66
2023-05-20T20:29:25.702Z,99655.31
2023-05-20T20:31:54.364Z,99655.29
2023-05-20T20:34:22.807Z,99651.25
2023-05-20T20:36:51.385Z,99653.87
2023-05-20T20:39:19.496Z,99648.01
2023-05-20T20:41:52.272Z,99645.16
2023-05-20T20:44:23.126Z,99644.84
2023-05-20T20:46:51.917Z,99640.96
2023-05-20T20:49:22.172Z,99643.77
2023-05-20T20:51:51.019Z,99647.16
2023-05-20T20:54:19.010Z,99647.33
2023-05-20T20:56:47.293Z,99645.33
2023-05-20T20:59:16.045Z,99641.20
2023-05-20T21:01:45.140Z,99638.65
2023-05-20T21:04:13.974Z,99639.83
2023-05-20T21:06:42.525Z,99642.58
2023-05-20T21:09:11.640Z,99641.42
2023-05-20T21:11:42.475Z,99638.56
2023-05-20T21:14:12.407Z,99637.59
2023-05-20T21:16:42.158Z,99637.14
2023-05-20T21:19:12.930Z,99634.53
2023-05-20T21:21:41.044Z,99638.28
2023-05-20T21:24:09.019Z,99636.73
2023-05-20T21:26:37.007Z,99639.22
2023-05-20T21:29:06.111Z,99637.52
2023-05-20T21:31:34.161Z,99635.95
2023-05-20T21:34:02.254Z,99631.73
2023-05-20T21:36:30.538Z,99635.55
2023-05-20T21:38:58.485Z,99635.31
2023-05-20T21:41:27.334Z,99635.25
2023-05-20T21:43:55.555Z,99633.37
2023-05-20T21:46:23.807Z,99633.23
2023-05-20T21:48:51.865Z,99631.10
2023-05-20T21:51:19.952Z,99629.50
2023-05-20T21:53:47.924Z,99628.41
2023-05-20T21:56:15.902Z,99628.06
2023-05-20T21:58:43.892Z,99628.02
2023-05-20T22:01:11.986Z,99622.52
2023-05-20T22:03:40.344Z,99619.14
2023-05-20T22:06:09.237Z,99611.38
2023-05-20T22:08:37.267Z,99608.50
2023-05-20T22:11:08.417Z,99612.67
2023-05-20T22:13:36.410Z,99610.38
2023-05-20T22:16:05.194Z,99607.54
2023-05-20T22:18:34.048Z,99606.89
2023-05-20T22:21:02.114Z,99607.42
2023-05-20T22:23:30.093Z,99604.40
2023-05-20T22:25:58.240Z,99603.44
2023-05-20T22:28:26.334Z,99604.48
2023-05-20T22:30:54.842Z,99598.33
2023-05-20T22:33:24.389Z,99595.50
2023-05-20T22:35:53.603Z,99596.84
2023-05-20T22:38:22.033Z,99590.08
2023-05-20T22:40:50.097Z,99587.16
2023-05-20T22:43:18.068Z,99588.25
2023-05-20T22:45:46.139Z,99589.15
2023-05-20T22:48:14.388Z,99587.08
2023-05-20T22:50:42.307Z,99586.12
2023-05-20T22:53:10.237Z,99584.45
2023-05-20T22:55:38.859Z,99584.11
2023-05-20T22:58:08.024Z,99581.81
2023-05-20T23:00:36.438Z,99578.88
2023-05-20T23:03:05.107Z,99577.23
2023-05-20T23:05:33.237Z,99573.30
2023-05-20T23:08:01.422Z,99571.94
2023-05-20T23:10:29.454Z,99565.48
2023-05-20T23:12:57.399Z,99561.05
2023-05-20T23:15:25.540Z,99555.98
2023-05-20T23:17:53.590Z,99554.48
2023-05-20T23:20:22.345Z,99550.88
2023-05-20T23:22:50.646Z,99551.34
2023-05-20T23:25:18.618Z,99546.34
2023-05-20T23:27:46.697Z,99545.20
2023-05-20T23:30:14.739Z,99543.28
2023-05-20T23:32:42.855Z,99545.08
2023-05-20T23:35:11.798Z,99550.60
2023-05-20T23:37:41.227Z,99554.02
2023-05-20T23:40:09.711Z,99552.14
2023-05-20T23:42:38.032Z,99551.08
2023-05-20T23:45:06.590Z,99550.96
2023-05-20T23:47:36.323Z,99550.90
2023-05-20T23:50:04.491Z,99546.85
2023-05-20T23:52:32.503Z,99542.40
2023-05-20T23:55:00.462Z,99542.80
2023-05-20T23:57:28.525Z,99541.93
2023-05-20T23:59:56.569Z,99547.29
